ANA775 RJTT-RJCC
Flight info
| Callsign | ANA775 |
|---|---|
| Flight time | N/A |
| Altitude | 37000 |
| Route | BRUCE AGRIS Y11 SAMBO Y119 OHMAR Y13 SIRAO Y139 NAVER |
| Aircraft | A20N/M-SDE2E3FGHIRWXY/LB1 |
Departure
| Time | 2026-02-17 14:03 |
|---|---|
| Airport | Tokyo Haneda International Airport (RJTT) |
Arrival
| Time | N/A |
|---|---|
| Airport | New Chitose Airport (RJCC) |
| Time | Latitude | Longitude | Altitude | Speed | Heading |
|---|---|---|---|---|---|
| 2026-02-17 13:25 | 35.55317 | 139.78827 | 22 ft | 0 kts | 240° |
| 2026-02-17 13:41 | 35.55318 | 139.78828 | 22 ft | 1 kts | 240° |
| 2026-02-17 13:41 | 35.55326 | 139.78844 | 22 ft | 2 kts | 239° |
| 2026-02-17 13:42 | 35.55333 | 139.78860 | 21 ft | 2 kts | 240° |
| 2026-02-17 13:42 | 35.55341 | 139.78876 | 21 ft | 2 kts | 239° |
| 2026-02-17 13:42 | 35.55348 | 139.78891 | 21 ft | 2 kts | 240° |
| 2026-02-17 13:43 | 35.55365 | 139.78920 | 20 ft | 2 kts | 215° |
| 2026-02-17 13:43 | 35.55378 | 139.78929 | 20 ft | 2 kts | 200° |
| 2026-02-17 13:43 | 35.55391 | 139.78935 | 20 ft | 2 kts | 207° |
| 2026-02-17 13:43 | 35.55403 | 139.78946 | 19 ft | 2 kts | 225° |
| 2026-02-17 13:44 | 35.55412 | 139.78960 | 18 ft | 0 kts | 238° |
| 2026-02-17 13:44 | 35.55415 | 139.78966 | 18 ft | 1 kts | 241° |
| 2026-02-17 13:44 | 35.55415 | 139.78967 | 18 ft | 0 kts | 241° |
| 2026-02-17 13:46 | 35.55419 | 139.78976 | 18 ft | 2 kts | 241° |
| 2026-02-17 13:46 | 35.55427 | 139.78992 | 17 ft | 2 kts | 241° |
| 2026-02-17 13:46 | 35.55434 | 139.79007 | 16 ft | 1 kts | 241° |
| 2026-02-17 13:47 | 35.55449 | 139.79031 | 15 ft | 2 kts | 217° |
| 2026-02-17 13:47 | 35.55462 | 139.79042 | 14 ft | 2 kts | 201° |
| 2026-02-17 13:47 | 35.55476 | 139.79047 | 14 ft | 2 kts | 186° |
| 2026-02-17 13:47 | 35.55492 | 139.79047 | 14 ft | 2 kts | 171° |
| 2026-02-17 13:48 | 35.55506 | 139.79042 | 14 ft | 2 kts | 156° |
| 2026-02-17 13:48 | 35.55513 | 139.79038 | 14 ft | 1 kts | 147° |
| 2026-02-17 13:48 | 35.55516 | 139.79036 | 14 ft | 0 kts | 150° |
| 2026-02-17 13:52 | 35.55515 | 139.79036 | 14 ft | 0 kts | 150° |
| 2026-02-17 13:52 | 35.55509 | 139.79040 | 14 ft | 1 kts | 150° |
| 2026-02-17 13:53 | 35.55495 | 139.79050 | 14 ft | 2 kts | 152° |
| 2026-02-17 13:53 | 35.55475 | 139.79063 | 14 ft | 4 kts | 152° |
| 2026-02-17 13:53 | 35.55446 | 139.79083 | 13 ft | 5 kts | 150° |
| 2026-02-17 13:53 | 35.55409 | 139.79111 | 13 ft | 6 kts | 150° |
| 2026-02-17 13:54 | 35.55363 | 139.79141 | 12 ft | 7 kts | 150° |
| 2026-02-17 13:54 | 35.55313 | 139.79178 | 12 ft | 8 kts | 145° |
| 2026-02-17 13:54 | 35.55299 | 139.79244 | 11 ft | 9 kts | 60° |
| 2026-02-17 13:55 | 35.55222 | 139.79370 | 10 ft | 9 kts | 150° |
| 2026-02-17 13:55 | 35.55165 | 139.79410 | 10 ft | 9 kts | 150° |
| 2026-02-17 13:55 | 35.55104 | 139.79452 | 9 ft | 10 kts | 150° |
| 2026-02-17 13:55 | 35.55033 | 139.79504 | 8 ft | 12 kts | 149° |
| 2026-02-17 13:56 | 35.54960 | 139.79555 | 8 ft | 11 kts | 150° |
| 2026-02-17 13:56 | 35.54893 | 139.79604 | 8 ft | 11 kts | 150° |
| 2026-02-17 13:56 | 35.54818 | 139.79657 | 8 ft | 13 kts | 150° |
| 2026-02-17 13:56 | 35.54735 | 139.79715 | 8 ft | 13 kts | 149° |
| 2026-02-17 13:57 | 35.54660 | 139.79768 | 8 ft | 12 kts | 149° |
| 2026-02-17 13:57 | 35.54599 | 139.79811 | 8 ft | 7 kts | 150° |
| 2026-02-17 13:57 | 35.54549 | 139.79848 | 8 ft | 9 kts | 150° |
| 2026-02-17 13:57 | 35.54493 | 139.79887 | 8 ft | 9 kts | 149° |
| 2026-02-17 13:58 | 35.54429 | 139.79933 | 8 ft | 11 kts | 150° |
| 2026-02-17 13:58 | 35.54357 | 139.79984 | 8 ft | 12 kts | 150° |
| 2026-02-17 13:58 | 35.54292 | 139.80031 | 8 ft | 8 kts | 149° |
| 2026-02-17 13:59 | 35.54182 | 139.80107 | 8 ft | 9 kts | 150° |
| 2026-02-17 13:59 | 35.54125 | 139.80148 | 8 ft | 10 kts | 149° |
| 2026-02-17 13:59 | 35.54060 | 139.80196 | 8 ft | 10 kts | 150° |
| 2026-02-17 13:59 | 35.54008 | 139.80232 | 8 ft | 8 kts | 149° |
| 2026-02-17 14:00 | 35.53955 | 139.80270 | 8 ft | 9 kts | 150° |
| 2026-02-17 14:00 | 35.53910 | 139.80318 | 8 ft | 9 kts | 109° |
| 2026-02-17 14:00 | 35.53926 | 139.80389 | 8 ft | 8 kts | 59° |
| 2026-02-17 14:00 | 35.53957 | 139.80453 | 8 ft | 8 kts | 58° |
| 2026-02-17 14:01 | 35.54005 | 139.80490 | 8 ft | 9 kts | 341° |
| 2026-02-17 14:01 | 35.54032 | 139.80470 | 8 ft | 0 kts | 329° |
| 2026-02-17 14:01 | 35.54036 | 139.80467 | 8 ft | 5 kts | 330° |
| 2026-02-17 14:02 | 35.54293 | 139.80286 | 8 ft | 81 kts | 330° |
| 2026-02-17 14:02 | 35.54999 | 139.79784 | 9 ft | 147 kts | 330° |
| 2026-02-17 14:02 | 35.55962 | 139.79094 | 462 ft | 164 kts | 332° |
| 2026-02-17 14:03 | 35.58002 | 139.78674 | 1971 ft | 158 kts | 41° |
| 2026-02-17 14:03 | 35.58696 | 139.79697 | 2722 ft | 156 kts | 57° |
| 2026-02-17 14:03 | 35.59295 | 139.80782 | 3371 ft | 160 kts | 58° |
| 2026-02-17 14:03 | 35.59977 | 139.81955 | 3839 ft | 175 kts | 56° |
| 2026-02-17 14:04 | 35.60725 | 139.83200 | 4289 ft | 190 kts | 62° |
| 2026-02-17 14:04 | 35.61100 | 139.84792 | 4739 ft | 202 kts | 91° |
| 2026-02-17 14:04 | 35.61074 | 139.86606 | 5226 ft | 218 kts | 95° |
| 2026-02-17 14:04 | 35.61011 | 139.88574 | 5600 ft | 242 kts | 95° |
| 2026-02-17 14:05 | 35.60958 | 139.90727 | 6126 ft | 261 kts | 95° |
| 2026-02-17 14:05 | 35.61024 | 139.93015 | 6662 ft | 282 kts | 80° |
| 2026-02-17 14:05 | 35.61976 | 139.95180 | 7424 ft | 294 kts | 44° |
| 2026-02-17 14:05 | 35.63734 | 139.96407 | 8289 ft | 293 kts | 9° |
| 2026-02-17 14:06 | 35.65777 | 139.96599 | 9132 ft | 293 kts | 356° |
| 2026-02-17 14:06 | 35.67831 | 139.96622 | 9887 ft | 299 kts | 356° |
| 2026-02-17 14:06 | 35.69923 | 139.96678 | 10563 ft | 308 kts | 357° |
| 2026-02-17 14:07 | 35.74384 | 139.96414 | 11341 ft | 336 kts | 341° |
| 2026-02-17 14:07 | 35.76661 | 139.95523 | 11699 ft | 348 kts | 334° |
| 2026-02-17 14:07 | 35.78936 | 139.94444 | 12272 ft | 356 kts | 333° |
| 2026-02-17 14:07 | 35.81249 | 139.93327 | 13064 ft | 358 kts | 332° |
| 2026-02-17 14:08 | 35.83581 | 139.92210 | 13836 ft | 360 kts | 332° |
| 2026-02-17 14:08 | 35.85891 | 139.91113 | 14530 ft | 362 kts | 332° |
| 2026-02-17 14:08 | 35.88267 | 139.89993 | 14954 ft | 362 kts | 332° |
| 2026-02-17 14:08 | 35.90660 | 139.88864 | 15093 ft | 362 kts | 332° |
| 2026-02-17 14:09 | 35.93005 | 139.87756 | 15193 ft | 367 kts | 332° |
| 2026-02-17 14:09 | 35.95430 | 139.86615 | 15865 ft | 369 kts | 332° |
| 2026-02-17 14:09 | 35.97959 | 139.85818 | 16639 ft | 381 kts | 346° |
| 2026-02-17 14:09 | 36.00667 | 139.85942 | 17316 ft | 398 kts | 3° |
| 2026-02-17 14:10 | 36.03385 | 139.86969 | 17916 ft | 411 kts | 13° |
| 2026-02-17 14:10 | 36.06090 | 139.88268 | 18444 ft | 418 kts | 14° |
| 2026-02-17 14:10 | 36.08786 | 139.89594 | 18979 ft | 422 kts | 13° |
| 2026-02-17 14:11 | 36.14365 | 139.92256 | 20066 ft | 429 kts | 13° |
| 2026-02-17 14:11 | 36.17154 | 139.93549 | 20629 ft | 430 kts | 10° |
| 2026-02-17 14:11 | 36.20010 | 139.94475 | 21181 ft | 424 kts | 1° |
| 2026-02-17 14:11 | 36.22932 | 139.94861 | 21693 ft | 416 kts | 352° |
| 2026-02-17 14:12 | 36.25785 | 139.94842 | 22278 ft | 414 kts | 349° |
| 2026-02-17 14:12 | 36.28694 | 139.94725 | 22805 ft | 417 kts | 348° |
| 2026-02-17 14:12 | 36.31607 | 139.94606 | 23259 ft | 422 kts | 348° |
| 2026-02-17 14:12 | 36.34535 | 139.94504 | 23736 ft | 425 kts | 348° |
| 2026-02-17 14:13 | 36.37515 | 139.94414 | 24237 ft | 427 kts | 348° |
| 2026-02-17 14:13 | 36.40489 | 139.94325 | 24662 ft | 430 kts | 348° |
| 2026-02-17 14:13 | 36.43472 | 139.94331 | 25134 ft | 436 kts | 351° |
| 2026-02-17 14:13 | 36.46557 | 139.94443 | 25614 ft | 439 kts | 351° |
| 2026-02-17 14:14 | 36.49581 | 139.94571 | 26036 ft | 442 kts | 352° |
| 2026-02-17 14:14 | 36.52686 | 139.94711 | 26418 ft | 444 kts | 351° |
| 2026-02-17 14:14 | 36.55782 | 139.94852 | 26834 ft | 446 kts | 351° |
| 2026-02-17 14:15 | 36.62020 | 139.95125 | 27567 ft | 451 kts | 351° |
| 2026-02-17 14:15 | 36.65169 | 139.95258 | 27944 ft | 453 kts | 351° |
| 2026-02-17 14:15 | 36.68301 | 139.95390 | 28283 ft | 455 kts | 351° |
| 2026-02-17 14:15 | 36.71479 | 139.95528 | 28536 ft | 458 kts | 351° |
| 2026-02-17 14:16 | 36.74696 | 139.95671 | 28840 ft | 459 kts | 351° |
| 2026-02-17 14:16 | 36.77891 | 139.95807 | 29153 ft | 461 kts | 351° |
| 2026-02-17 14:16 | 36.81086 | 139.95946 | 29464 ft | 461 kts | 351° |
| 2026-02-17 14:16 | 36.84289 | 139.96109 | 29856 ft | 463 kts | 352° |
| 2026-02-17 14:17 | 36.85710 | 139.96237 | 30001 ft | 465 kts | 354° |